createdAt,value
2019-04-26T00:01:35.483Z,13.10
2019-04-26T00:04:24.643Z,13.20
2019-04-26T00:07:12.789Z,13.20
2019-04-26T00:10:03.556Z,13.10
2019-04-26T00:12:59.160Z,13.00
2019-04-26T00:15:59.014Z,13.00
2019-04-26T00:18:46.638Z,13.00
2019-04-26T00:21:34.619Z,13.10
2019-04-26T00:24:23.978Z,13.00
2019-04-26T00:27:12.728Z,13.00
2019-04-26T00:30:01.030Z,13.00
2019-04-26T00:32:49.345Z,13.00
2019-04-26T00:35:47.292Z,13.00
2019-04-26T00:38:27.578Z,13.00
2019-04-26T00:41:16.396Z,13.00
2019-04-26T00:44:04.392Z,12.90
2019-04-26T00:46:56.313Z,12.80
2019-04-26T00:49:44.662Z,12.70
2019-04-26T00:52:33.551Z,12.60
2019-04-26T00:55:22.034Z,12.60
2019-04-26T00:58:10.751Z,12.50
2019-04-26T01:01:00.560Z,12.50
2019-04-26T01:03:49.023Z,12.50
2019-04-26T01:06:39.735Z,12.50
2019-04-26T01:09:27.891Z,12.60
2019-04-26T01:12:16.809Z,12.70
2019-04-26T01:15:05.754Z,12.70
2019-04-26T01:17:53.308Z,12.70
2019-04-26T01:20:43.796Z,12.60
2019-04-26T01:23:35.038Z,12.50
2019-04-26T01:26:31.939Z,12.50
2019-04-26T01:29:22.127Z,12.50
2019-04-26T01:32:12.290Z,12.60
2019-04-26T01:35:00.211Z,12.60
2019-04-26T01:37:50.643Z,12.70
2019-04-26T01:40:38.888Z,12.70
2019-04-26T01:43:55.654Z,12.60
2019-04-26T01:46:46.198Z,12.50
2019-04-26T01:49:35.622Z,12.50
2019-04-26T01:52:24.191Z,12.50
2019-04-26T01:55:12.615Z,12.50
2019-04-26T01:58:03.252Z,12.50
2019-04-26T02:01:09.472Z,12.60
2019-04-26T02:03:57.581Z,12.70
2019-04-26T02:06:46.139Z,12.70
2019-04-26T02:09:34.515Z,12.80
2019-04-26T02:12:23.550Z,12.80
2019-04-26T02:15:12.819Z,12.90
2019-04-26T02:18:01.774Z,12.90
2019-04-26T02:21:06.061Z,12.90
2019-04-26T02:23:59.128Z,12.90
2019-04-26T02:26:49.205Z,13.00
2019-04-26T02:29:36.836Z,13.00
2019-04-26T02:32:27.243Z,12.90
2019-04-26T02:35:16.253Z,12.90
2019-04-26T02:38:04.746Z,12.80
2019-04-26T02:40:54.427Z,12.80
2019-04-26T02:43:45.142Z,12.90
2019-04-26T02:46:43.825Z,12.90
2019-04-26T02:49:38.630Z,12.90
2019-04-26T02:53:03.607Z,12.80
2019-04-26T02:56:09.476Z,12.80
2019-04-26T02:59:22.460Z,12.80
2019-04-26T03:02:19.408Z,12.80
2019-04-26T03:05:09.747Z,12.70
2019-04-26T03:08:08.367Z,12.70
2019-04-26T03:11:06.281Z,12.70
2019-04-26T03:14:14.260Z,12.80
2019-04-26T03:17:33.650Z,12.70
2019-04-26T03:20:28.647Z,12.70
2019-04-26T03:23:45.805Z,12.70
2019-04-26T03:26:35.606Z,12.60
2019-04-26T03:29:50.012Z,12.60
2019-04-26T03:32:58.324Z,12.70
2019-04-26T03:36:14.278Z,12.80
2019-04-26T03:39:25.274Z,12.80
2019-04-26T03:42:45.198Z,12.80
2019-04-26T03:46:07.066Z,12.70
2019-04-26T03:49:14.342Z,12.70
2019-04-26T03:52:45.451Z,12.70
2019-04-26T03:56:27.423Z,12.60
2019-04-26T04:00:16.757Z,12.60
2019-04-26T04:03:47.489Z,12.60
2019-04-26T04:06:52.613Z,12.70
2019-04-26T04:09:27.712Z,12.70
2019-04-26T04:12:24.236Z,12.50
2019-04-26T04:15:17.808Z,12.50
2019-04-26T04:18:11.700Z,12.60
2019-04-26T04:21:23.687Z,12.50
2019-04-26T04:24:17.961Z,12.50
2019-04-26T04:27:49.419Z,12.40
2019-04-26T04:31:08.029Z,12.40
2019-04-26T04:34:05.400Z,12.40
2019-04-26T04:36:56.156Z,12.40
2019-04-26T04:40:01.814Z,12.30
2019-04-26T04:43:17.695Z,12.30
2019-04-26T04:46:50.290Z,12.20
2019-04-26T04:49:56.762Z,12.10
2019-04-26T04:53:08.992Z,12.10
2019-04-26T04:56:17.631Z,12.10
2019-04-26T04:59:09.710Z,12.10
2019-04-26T05:02:21.931Z,12.10
2019-04-26T05:06:07.395Z,12.20
2019-04-26T05:09:10.682Z,12.20
2019-04-26T05:12:19.239Z,12.10
2019-04-26T05:15:52.795Z,12.10
2019-04-26T05:19:25.468Z,12.00
2019-04-26T05:22:57.243Z,12.00
2019-04-26T05:26:51.525Z,12.10
2019-04-26T05:30:13.495Z,12.00
2019-04-26T05:33:24.644Z,11.90
2019-04-26T05:36:33.236Z,11.90
2019-04-26T05:39:25.067Z,11.80
2019-04-26T05:43:10.616Z,11.90
2019-04-26T05:46:22.280Z,11.80
2019-04-26T05:49:47.791Z,11.80
2019-04-26T05:53:14.799Z,11.70
2019-04-26T05:56:25.380Z,11.70
2019-04-26T05:59:26.864Z,11.70
2019-04-26T06:03:01.690Z,11.80
2019-04-26T06:06:20.164Z,11.70
2019-04-26T06:09:43.435Z,11.70
2019-04-26T06:12:47.979Z,11.80
2019-04-26T06:15:48.847Z,11.80
2019-04-26T06:19:03.391Z,11.80
2019-04-26T06:22:15.943Z,11.70
2019-04-26T06:25:23.928Z,11.80
2019-04-26T06:28:35.407Z,12.00
2019-04-26T06:31:35.619Z,12.00
2019-04-26T06:34:51.030Z,12.00
2019-04-26T06:37:53.900Z,12.00
2019-04-26T06:41:24.891Z,12.10
2019-04-26T06:44:17.567Z,12.20
2019-04-26T06:47:31.074Z,12.40
2019-04-26T06:50:27.202Z,12.40
2019-04-26T06:53:57.213Z,12.50
2019-04-26T06:57:23.978Z,12.30
2019-04-26T07:00:22.264Z,12.20
2019-04-26T07:03:44.957Z,12.20
2019-04-26T07:06:38.523Z,12.10
2019-04-26T07:09:30.013Z,12.00
2019-04-26T07:12:36.488Z,12.10
2019-04-26T07:16:00.317Z,12.10
2019-04-26T07:19:29.292Z,12.20
2019-04-26T07:22:35.530Z,12.30
2019-04-26T07:26:00.233Z,12.30
2019-04-26T07:29:07.207Z,12.30
2019-04-26T07:32:05.298Z,12.30
2019-04-26T07:35:10.523Z,12.30
2019-04-26T07:39:10.437Z,12.30
2019-04-26T07:42:40.804Z,12.10
2019-04-26T07:46:08.535Z,12.30
2019-04-26T07:50:03.533Z,12.20
2019-04-26T07:53:36.476Z,12.20
2019-04-26T07:57:00.260Z,12.20
2019-04-26T08:00:13.069Z,12.20
2019-04-26T08:03:26.103Z,12.20
2019-04-26T08:06:28.567Z,12.20
2019-04-26T08:09:26.728Z,12.20
2019-04-26T08:12:12.138Z,12.20
2019-04-26T08:15:30.172Z,12.20
2019-04-26T08:18:26.215Z,12.20
2019-04-26T08:21:32.025Z,12.20
2019-04-26T08:24:28.190Z,12.10
2019-04-26T08:27:25.556Z,12.10
2019-04-26T08:30:19.124Z,12.20
2019-04-26T08:33:10.564Z,12.10
2019-04-26T08:35:58.274Z,12.20
2019-04-26T08:38:52.442Z,12.20
2019-04-26T08:41:40.334Z,12.30
2019-04-26T08:44:38.199Z,12.40
2019-04-26T08:47:38.772Z,12.60
2019-04-26T08:50:52.732Z,12.70
2019-04-26T08:53:42.313Z,12.70
2019-04-26T08:56:35.864Z,12.80
2019-04-26T08:59:26.594Z,13.10
2019-04-26T09:02:50.867Z,13.20
2019-04-26T09:06:07.707Z,13.30
2019-04-26T09:08:57.575Z,13.50
2019-04-26T09:11:58.916Z,13.50
2019-04-26T09:14:38.808Z,13.50
2019-04-26T09:17:27.832Z,13.30
2019-04-26T09:20:28.084Z,13.20
2019-04-26T09:23:39.621Z,13.20
2019-04-26T09:26:42.495Z,13.30
2019-04-26T09:29:49.399Z,13.50
2019-04-26T09:32:45.910Z,13.70
2019-04-26T09:35:34.515Z,13.60
2019-04-26T09:38:22.084Z,13.40
2019-04-26T09:41:10.651Z,13.30
2019-04-26T09:44:04.029Z,13.10
2019-04-26T09:46:59.332Z,13.10
2019-04-26T09:50:24.952Z,13.40
2019-04-26T09:53:13.103Z,13.60
2019-04-26T09:56:01.115Z,13.90
2019-04-26T09:58:48.742Z,14.30
2019-04-26T10:01:37.753Z,14.30
2019-04-26T10:04:25.595Z,14.10
2019-04-26T10:07:14.341Z,14.00
2019-04-26T10:10:02.705Z,13.90
2019-04-26T10:13:16.413Z,13.90
2019-04-26T10:16:09.497Z,13.80
2019-04-26T10:19:00.310Z,13.80
2019-04-26T10:21:48.448Z,13.80
2019-04-26T10:24:36.095Z,13.80
2019-04-26T10:27:24.752Z,13.70
2019-04-26T10:30:17.068Z,13.70
2019-04-26T10:33:05.047Z,13.70
2019-04-26T10:35:56.756Z,13.50
2019-04-26T10:38:46.184Z,13.30
2019-04-26T10:41:34.571Z,13.20
2019-04-26T10:44:23.280Z,13.30
2019-04-26T10:47:11.239Z,13.40
2019-04-26T10:49:59.310Z,13.40
2019-04-26T10:53:09.486Z,13.50
2019-04-26T10:56:25.477Z,13.60
2019-04-26T10:59:39.664Z,13.60
2019-04-26T11:02:25.657Z,13.50
2019-04-26T11:05:18.233Z,13.60
2019-04-26T11:08:04.464Z,13.70
2019-04-26T11:10:52.501Z,13.80
2019-04-26T11:13:40.127Z,13.70
2019-04-26T11:16:28.984Z,13.70
2019-04-26T11:19:17.307Z,13.70
2019-04-26T11:22:05.975Z,13.70
2019-04-26T11:24:55.060Z,14.00
2019-04-26T11:27:46.648Z,14.20
2019-04-26T11:30:33.336Z,14.40
2019-04-26T11:33:21.857Z,14.80
2019-04-26T11:36:10.565Z,15.20
2019-04-26T11:39:01.261Z,15.30
2019-04-26T11:41:49.508Z,15.50
2019-04-26T11:44:37.046Z,15.70
2019-04-26T11:47:25.299Z,17.00
2019-04-26T11:50:16.191Z,18.70
2019-04-26T11:53:06.285Z,18.60
2019-04-26T11:55:54.419Z,17.50
2019-04-26T11:58:43.456Z,16.90
2019-04-26T12:01:32.174Z,16.30
2019-04-26T12:04:41.575Z,16.10
2019-04-26T12:07:33.208Z,16.00
2019-04-26T12:10:21.700Z,15.60
2019-04-26T12:13:10.083Z,15.40
2019-04-26T12:15:58.678Z,15.30
2019-04-26T12:18:47.104Z,15.30
2019-04-26T12:21:35.218Z,15.10
2019-04-26T12:24:25.315Z,14.80
2019-04-26T12:27:14.150Z,14.80
2019-04-26T12:30:02.008Z,14.80
2019-04-26T12:32:50.285Z,14.80
2019-04-26T12:35:38.672Z,14.90
2019-04-26T12:38:28.528Z,14.90
2019-04-26T12:41:17.187Z,15.10
2019-04-26T12:44:05.820Z,15.30
2019-04-26T12:47:07.076Z,15.40
2019-04-26T12:49:58.988Z,15.60
2019-04-26T12:52:45.407Z,15.60
2019-04-26T12:55:34.204Z,15.70
2019-04-26T12:58:21.944Z,15.90
2019-04-26T13:01:13.258Z,16.10
2019-04-26T13:04:05.512Z,16.30
2019-04-26T13:07:06.927Z,16.50
2019-04-26T13:10:15.868Z,16.10
2019-04-26T13:13:23.065Z,16.30
2019-04-26T13:16:21.804Z,16.30
2019-04-26T13:19:10.235Z,16.30
2019-04-26T13:21:58.164Z,16.10
2019-04-26T13:24:46.436Z,15.90
2019-04-26T13:27:35.468Z,15.80
2019-04-26T13:30:32.784Z,16.10
2019-04-26T13:33:13.525Z,16.60
2019-04-26T13:36:03.246Z,17.10
2019-04-26T13:38:50.992Z,17.10
2019-04-26T13:41:40.255Z,17.00
2019-04-26T13:44:46.826Z,16.90
2019-04-26T13:47:57.656Z,17.70
2019-04-26T13:50:50.879Z,18.00
2019-04-26T13:53:39.013Z,18.10
2019-04-26T13:56:26.843Z,18.20
2019-04-26T13:59:14.926Z,18.00
2019-04-26T14:02:11.299Z,17.90
2019-04-26T14:04:51.735Z,18.10
2019-04-26T14:07:39.308Z,18.40
2019-04-26T14:10:27.654Z,18.60
2019-04-26T14:13:15.395Z,18.10
2019-04-26T14:16:03.878Z,18.10
2019-04-26T14:18:53.590Z,18.40
2019-04-26T14:21:42.332Z,18.70
2019-04-26T14:24:38.999Z,19.60
2019-04-26T14:27:49.871Z,20.10
2019-04-26T14:30:37.471Z,19.00
2019-04-26T14:33:27.141Z,17.90
2019-04-26T14:36:17.958Z,17.20
2019-04-26T14:39:10.700Z,17.10
2019-04-26T14:41:58.415Z,17.30
2019-04-26T14:44:49.668Z,17.40
2019-04-26T14:47:46.688Z,17.40
2019-04-26T14:50:28.140Z,17.50
2019-04-26T14:53:16.544Z,17.30
2019-04-26T14:56:04.879Z,17.00
2019-04-26T14:58:53.583Z,16.80
2019-04-26T15:02:10.351Z,16.90
2019-04-26T15:05:22.270Z,17.00
2019-04-26T15:08:11.688Z,16.90
2019-04-26T15:11:01.337Z,16.90
2019-04-26T15:13:50.856Z,17.00
2019-04-26T15:16:41.416Z,17.40
2019-04-26T15:19:28.719Z,17.70
2019-04-26T15:22:16.923Z,17.90
2019-04-26T15:25:07.768Z,18.00
2019-04-26T15:27:54.042Z,18.10
2019-04-26T15:30:46.632Z,18.20
2019-04-26T15:33:32.566Z,18.20
2019-04-26T15:36:23.258Z,18.30
2019-04-26T15:39:23.643Z,18.10
2019-04-26T15:42:23.260Z,18.40
2019-04-26T15:45:32.609Z,18.80
2019-04-26T15:48:55.799Z,18.80
2019-04-26T15:51:44.316Z,18.50
2019-04-26T15:54:32.472Z,18.50
2019-04-26T15:57:24.483Z,17.90
2019-04-26T16:00:12.453Z,18.10
2019-04-26T16:03:03.793Z,17.90
2019-04-26T16:05:50.423Z,17.90
2019-04-26T16:08:42.715Z,17.90
2019-04-26T16:11:29.031Z,17.70
2019-04-26T16:14:16.992Z,17.80
2019-04-26T16:17:06.761Z,17.70
2019-04-26T16:19:56.189Z,17.70
2019-04-26T16:22:45.033Z,17.50
2019-04-26T16:25:34.436Z,17.60
2019-04-26T16:28:38.371Z,17.60
2019-04-26T16:31:34.258Z,18.00
2019-04-26T16:34:23.358Z,18.00
2019-04-26T16:37:14.961Z,17.90
2019-04-26T16:40:01.816Z,17.40
2019-04-26T16:42:49.681Z,17.30
2019-04-26T16:45:41.268Z,17.30
2019-04-26T16:48:29.556Z,17.10
2019-04-26T16:51:18.295Z,16.80
2019-04-26T16:54:10.654Z,16.70
2019-04-26T16:56:58.993Z,16.50
2019-04-26T16:59:49.126Z,16.50
2019-04-26T17:02:37.010Z,16.60
2019-04-26T17:08:19.118Z,16.70
2019-04-26T17:09:41.877Z,16.60
2019-04-26T17:11:05.664Z,16.90
2019-04-26T17:13:56.765Z,17.00
2019-04-26T17:16:44.423Z,17.00
2019-04-26T17:19:34.303Z,17.00
2019-04-26T17:22:41.810Z,16.80
2019-04-26T17:25:26.937Z,17.00
2019-04-26T17:28:17.955Z,16.80
2019-04-26T17:31:04.855Z,16.80
2019-04-26T17:33:52.860Z,16.90
2019-04-26T17:36:41.248Z,16.80
2019-04-26T17:39:30.385Z,16.80
2019-04-26T17:42:18.750Z,16.50
2019-04-26T17:45:07.250Z,16.30
2019-04-26T17:47:55.595Z,16.10
2019-04-26T17:50:43.245Z,16.10
2019-04-26T17:53:33.739Z,16.00
2019-04-26T17:56:21.872Z,15.90
2019-04-26T17:59:30.169Z,15.80
2019-04-26T18:02:01.311Z,15.70
2019-04-26T18:04:59.018Z,15.60
2019-04-26T18:07:43.664Z,15.50
2019-04-26T18:10:30.538Z,15.50
2019-04-26T18:13:18.655Z,15.40
2019-04-26T18:16:06.560Z,15.40
2019-04-26T18:19:12.689Z,15.30
2019-04-26T18:22:12.904Z,15.20
2019-04-26T18:25:04.283Z,15.20
2019-04-26T18:27:50.000Z,15.20
2019-04-26T18:30:40.410Z,15.30
2019-04-26T18:33:27.824Z,15.30
2019-04-26T18:36:15.685Z,15.20
2019-04-26T18:39:05.527Z,15.20
2019-04-26T18:41:53.752Z,15.20
2019-04-26T18:44:47.369Z,15.10
2019-04-26T18:47:38.256Z,15.10
2019-04-26T18:50:28.420Z,15.00
2019-04-26T18:53:44.992Z,15.00
2019-04-26T18:56:39.617Z,14.90
2019-04-26T18:59:23.991Z,14.90
2019-04-26T19:02:18.707Z,14.90
2019-04-26T19:05:03.622Z,14.80
2019-04-26T19:07:52.184Z,13.50
2019-04-26T19:10:40.663Z,12.90
2019-04-26T19:13:51.539Z,12.60
2019-04-26T19:17:03.245Z,12.40
2019-04-26T19:20:26.161Z,12.30
2019-04-26T19:23:14.573Z,12.30
2019-04-26T19:26:03.288Z,12.30
2019-04-26T19:28:52.849Z,12.30
2019-04-26T19:31:42.982Z,12.20
2019-04-26T19:34:31.326Z,12.10
2019-04-26T19:37:19.475Z,12.10
2019-04-26T19:40:09.284Z,12.10
2019-04-26T19:42:57.775Z,12.10
2019-04-26T19:45:56.293Z,12.00
2019-04-26T19:49:06.471Z,11.90
2019-04-26T19:52:06.045Z,11.80
2019-04-26T19:55:11.357Z,11.80
2019-04-26T19:58:20.578Z,11.80
2019-04-26T20:01:07.411Z,11.80
2019-04-26T20:03:55.662Z,11.80
2019-04-26T20:06:43.852Z,11.60
2019-04-26T20:09:32.127Z,11.50
2019-04-26T20:12:23.429Z,11.50
2019-04-26T20:15:24.877Z,11.40
2019-04-26T20:18:03.695Z,11.30
2019-04-26T20:20:52.128Z,11.30
2019-04-26T20:23:45.023Z,11.40
2019-04-26T20:26:31.423Z,11.30
2019-04-26T20:29:21.457Z,11.20
2019-04-26T20:32:21.180Z,11.20
2019-04-26T20:35:19.707Z,11.10
2019-04-26T20:38:07.107Z,11.00
2019-04-26T20:40:54.837Z,11.00
2019-04-26T20:43:46.844Z,11.00
2019-04-26T20:46:34.453Z,10.90
2019-04-26T20:49:22.104Z,10.90
2019-04-26T20:52:10.570Z,10.90
2019-04-26T20:55:05.408Z,10.90
2019-04-26T20:57:53.447Z,10.90
2019-04-26T21:00:53.735Z,10.90
2019-04-26T21:03:32.113Z,10.80
2019-04-26T21:06:22.260Z,10.80
2019-04-26T21:09:12.313Z,10.70
2019-04-26T21:12:01.918Z,10.60
2019-04-26T21:14:51.755Z,10.60
2019-04-26T21:17:41.502Z,10.60
2019-04-26T21:20:34.505Z,10.60
2019-04-26T21:23:19.793Z,10.60
2019-04-26T21:26:33.083Z,10.60
2019-04-26T21:29:41.634Z,10.50
2019-04-26T21:32:43.729Z,10.50
2019-04-26T21:35:39.787Z,10.50
2019-04-26T21:38:41.439Z,10.40
2019-04-26T21:41:33.343Z,10.40
2019-04-26T21:44:21.904Z,10.40
2019-04-26T21:47:10.274Z,10.40
2019-04-26T21:50:00.502Z,10.40
2019-04-26T21:52:48.346Z,10.50
2019-04-26T21:55:38.795Z,10.40
2019-04-26T21:58:26.551Z,10.30
2019-04-26T22:01:19.523Z,10.30
2019-04-26T22:04:07.975Z,10.30
2019-04-26T22:06:55.765Z,10.30
2019-04-26T22:09:57.799Z,10.20
2019-04-26T22:12:45.724Z,10.20
2019-04-26T22:15:54.500Z,10.20
2019-04-26T22:18:56.780Z,10.10
2019-04-26T22:21:59.478Z,10.10
2019-04-26T22:24:49.690Z,10.10
2019-04-26T22:27:38.152Z,10.00
2019-04-26T22:30:29.396Z,9.90
2019-04-26T22:33:17.767Z,9.90
2019-04-26T22:36:05.443Z,9.80
2019-04-26T22:38:55.641Z,9.80
2019-04-26T22:41:43.735Z,9.80
2019-04-26T22:44:40.400Z,9.80
2019-04-26T22:47:42.742Z,9.70
2019-04-26T22:50:33.489Z,9.70
2019-04-26T22:53:25.320Z,9.70
2019-04-26T22:56:10.995Z,9.60
2019-04-26T22:59:04.743Z,9.70
2019-04-26T23:01:48.948Z,9.80
2019-04-26T23:04:37.502Z,9.70
2019-04-26T23:07:26.200Z,9.60
2019-04-26T23:10:15.919Z,9.60
2019-04-26T23:13:13.692Z,9.60
2019-04-26T23:16:19.071Z,9.60
2019-04-26T23:19:38.118Z,9.50
2019-04-26T23:22:30.907Z,9.60
2019-04-26T23:25:16.528Z,9.50
2019-04-26T23:28:04.751Z,9.50
2019-04-26T23:30:53.535Z,9.50
2019-04-26T23:33:42.955Z,9.50
2019-04-26T23:36:31.811Z,9.50
2019-04-26T23:39:20.192Z,9.40
2019-04-26T23:42:12.325Z,9.40
2019-04-26T23:44:59.343Z,9.40
2019-04-26T23:47:47.671Z,9.50
2019-04-26T23:50:35.810Z,9.50
2019-04-26T23:53:24.217Z,9.60
2019-04-26T23:56:16.185Z,9.60
2019-04-26T23:59:03.582Z,9.60
